Tiempo atmosférico en la estación meteorológica de Valencia De Don Juan, León (788 m.)



Fecha
DESCASC
Temp. máxima en grados centígrados (hora)
DESCASC
Temp. mínima en grados centígrados (hora)
DESCASC
Temp. media en grados centígrados
DESCASC
Racha de viento máxima en m/sg (hora)
DESCASC
Velocidad máxima media en intervalos de 10 minutos(hora)
DESCASC
Precipitaciones diarias en mm
DESCASC
Precipitaciones de 00:00 a 06:00 en mm
DESCASC
Precipitaciones de 06:00 a 12:00 en mm
DESCASC
Precipitaciones de 12:00 a 18:00 en mm
DESCASC
Precipitaciones de 18:00 a 24:00 en mm
DESCASC
13-10-2019 20.9 (17:10) 12.1 (08:50) 16.5 15 (07:10) 8.89 (15:50) 0 0 0 0 0
12-10-2019 26.3 (16:10) 14.5 (06:50) 20.4 16.39 (18:20) 10.83 (16:30) 0 0 0 0 0
11-10-2019 25.8 (17:00) 5.2 (08:20) 15.5 7.5 (17:20) 5.28 (17:20) 0 0 0 0 0
10-10-2019 21.6 (17:30) 3.8 (00:00) 12.7 5.28 (12:20) 3.33 (11:20) 0 0 0 0 0
09-10-2019 20.4 (18:30) 7.9 (00:00) 14.1 9.72 (04:50) 6.39 (05:00) 0 0 0 0 0
08-10-2019 26.1 (17:00) 8.1 (00:00) 17.1 6.67 (19:00) 5.28 (01:00) 0 0 0 0 0
07-10-2019 26.2 (17:50) 7.4 (00:00) 16.8 7.78 (03:10) 6.11 (03:10) 0 0 0 0 0
06-10-2019 23.9 (17:50) 8.4 (00:00) 16.1 7.78 (23:10) 5 (23:10) 0 0 0 0 0
05-10-2019 23.8 (18:30) 7.6 (00:00) 15.7 6.39 (02:10) 4.72 (02:40) 0 0 0 0 0
04-10-2019 23.4 (17:40) 8 (00:00) 15.7 6.94 (15:40) 3.89 (00:30) 0 0 0 0 0
03-10-2019 25.2 (17:50) 6.5 (00:00) 15.9 9.17 (00:10) 7.22 (00:10) 0 0 0 0 0
02-10-2019 20.6 (17:20) 8.5 (00:00) 14.6 9.72 (01:30) 6.94 (01:30) 0 0 0 0 0
01-10-2019 21.4 (16:10) 12.6 (00:00) 17 12.22 (21:50) 8.33 (21:50) 0 0 0 0 0
30-09-2019 26.5 (18:10) 11.1 (00:00) 18.8 7.5 (17:40) 5.28 (19:00) 0 0 0 0 0
29-09-2019 26.4 (17:30) 5.8 (00:00) 16.1 8.33 (21:40) 5 (19:20) 0 0 0 0 0
28-09-2019 22.6 (18:10) 6.4 (00:00) 14.5 5.28 (22:40) 4.44 (22:30) 0 0 0 0 0
27-09-2019 22.7 (16:00) 8.8 (00:00) 15.8 9.72 (16:50) 6.67 (16:50) 0 0 0 0 0
26-09-2019 25 (18:40) 9.4 (00:00) 17.2 5.83 (18:50) 3.61 (20:30) 0 0 0 0 0
25-09-2019 -- (--) -- (--) -- -- (--) -- (--) -- -- -- -- --
24-09-2019 -- (--) -- (--) -- -- (--) -- (--) -- -- -- -- --
23-09-2019 -- (--) -- (--) -- -- (--) -- (--) -- -- -- -- --
22-09-2019 -- (--) -- (--) -- -- (--) -- (--) -- -- -- -- --
21-09-2019 -- (--) -- (--) -- -- (--) -- (--) -- -- -- -- --
20-09-2019 -- (--) -- (--) -- -- (--) -- (--) -- -- -- -- --
19-09-2019 -- (--) -- (--) -- -- (--) -- (--) -- -- -- -- --
18-09-2019 -- (--) -- (--) -- -- (--) -- (--) -- -- -- -- --
17-09-2019 -- (--) -- (--) -- -- (--) -- (--) -- -- -- 0 --

Gráficas

Temp. máximas Temp. mínimas Temp. medias Precipitaciones Rachas de viento máximas Velocidades máximas media en intervalos de 10 minutos

Datos horarios

Fecha y hora oficial Temperatura (ºC) Velocidad del viento (km/h) Dirección del viento Racha (km/h) Dirección de racha Precipitación (mm) Presión (hPa) Tendencia (hPa) Humedad (%)
2019-10-16 23:00:00 11.6 15 Sur 28 Sudoeste 0.8 -- -- 90
2019-10-16 22:00:00 11.7 19 Sudoeste 30 Sudoeste 1.4 -- -- 88
2019-10-16 21:00:00 12.6 13 Sudoeste 26 Sudoeste 0.4 -- -- 82
2019-10-16 20:00:00 13.4 15 Sudoeste 28 Sudoeste 0 -- -- 74
2019-10-16 19:00:00 13.6 19 Sudoeste 31 Sudoeste 0 -- -- 73
2019-10-16 18:00:00 13.8 27 Sudoeste 42 Sudoeste 0 -- -- 71
2019-10-16 17:00:00 14.4 32 Sudoeste 44 Sudoeste 0 -- -- 67
2019-10-16 16:00:00 13.7 28 Sudoeste 51 Sudoeste 0 -- -- 70
2019-10-16 15:00:00 14 27 Sudoeste 42 Sudoeste 0 -- -- 71
2019-10-16 14:00:00 13.4 24 Sudoeste 43 Sudoeste 0 -- -- 73
2019-10-16 13:00:00 13 26 Sudoeste 39 Sudoeste 0 -- -- 76
2019-10-16 12:00:00 11.2 27 Sudoeste 42 Sudoeste 0 -- -- 83
2019-10-16 11:00:00 9.7 24 Sudoeste 35 Sudoeste 0 -- -- 87
2019-10-16 10:00:00 9.3 25 Sur 35 Sudoeste 0 -- -- 90
2019-10-16 09:00:00 8.9 24 Sur 40 Sudoeste 0 -- -- 90
2019-10-16 08:00:00 9 25 Sudoeste 39 Sudoeste 0 -- -- 89
2019-10-16 07:00:00 8.8 21 Sudoeste 31 Sur 0.2 -- -- 89
2019-10-16 06:00:00 8.9 22 Sur 31 Sur 0.2 -- -- 88
2019-10-16 05:00:00 9.1 20 Sudoeste 36 Sudoeste 0 -- -- 88
2019-10-16 04:00:00 9.5 24 Sudoeste 35 Sudoeste 0 -- -- 84
2019-10-16 03:00:00 9.5 19 Sudoeste 30 Sur 0 -- -- 85
2019-10-16 02:00:00 9.7 18 Sudoeste 32 Sudoeste 0 -- -- 86
2019-10-16 01:00:00 9.8 21 Sudoeste 33 Sudoeste 0 -- -- 86
2019-10-16 00:00:00 9.9 19 Sudoeste 32 Sudoeste 0 -- -- 86
2019-10-15 23:00:00 9.8 17 Sudoeste 24 Sur 0 -- -- 88
2019-10-15 22:00:00 9.8 11 Sudoeste 18 Sudoeste 0.2 -- -- 87
2019-10-15 21:00:00 10 15 Sudoeste 23 Sudoeste 0 -- -- 83
2019-10-15 20:00:00 10.2 16 Sudoeste 39 Sudoeste 0 -- -- 81
2019-10-15 19:00:00 10.7 28 Sudoeste 43 Sudoeste 0 -- -- 77
2019-10-15 18:00:00 11.4 31 Sudoeste 45 Sudoeste 0 -- -- 71
2019-10-15 17:00:00 12.4 30 Sudoeste 43 Sudoeste 0 -- -- 66
2019-10-15 16:00:00 13 25 Sudoeste 36 Sudoeste 0 -- -- 61
2019-10-15 15:00:00 13 19 Sudoeste 29 Sur 0 -- -- 56
2019-10-15 14:00:00 12.5 14 Sudoeste 27 Sudoeste 0 -- -- 60
2019-10-15 13:00:00 11.5 17 Sudoeste 29 Sudoeste 0 -- -- 65
2019-10-15 12:00:00 10.1 14 Sur 23 Sudoeste 0 -- -- 78
2019-10-15 11:00:00 8.2 14 Sudoeste 20 Sudoeste 0 -- -- 86
2019-10-15 10:00:00 6 9 Sudoeste 18 Sudoeste 0 -- -- 92
2019-10-15 09:00:00 5 15 Sudoeste 21 Sudoeste 0 -- -- 92
2019-10-15 08:00:00 4.1 11 Sudoeste 20 Sudoeste 0 -- -- 92
2019-10-15 07:00:00 -- -- -- -- -- -- -- -- --
2019-10-15 06:00:00 -- -- -- -- -- -- -- -- --
2019-10-15 05:00:00 -- -- -- -- -- -- -- -- --
2019-10-15 04:00:00 -- -- -- -- -- -- -- -- --
2019-10-15 03:00:00 -- -- -- -- -- -- -- -- --
2019-10-15 02:00:00 -- -- -- -- -- -- -- -- --
2019-10-15 01:00:00 6.5 13 Sudoeste 34 Oeste 0 -- -- 79
2019-10-15 00:00:00 6.4 12 Sudoeste 17 Sudoeste 0 -- -- 83
2019-10-14 23:00:00 6.7 11 Oeste 20 Oeste 0 -- -- 79
2019-10-14 22:00:00 6.7 13 Oeste 27 Oeste 0 -- -- 79
2019-10-14 21:00:00 7.2 16 Oeste 37 Oeste 0 -- -- 77
2019-10-14 20:00:00 8.6 26 Oeste 37 Noroeste 0 -- -- 75
2019-10-14 19:00:00 9.8 8 Sudoeste 14 Oeste 0 -- -- 77
2019-10-14 18:00:00 9 9 Noroeste 43 Sudoeste 0 -- -- 78
2019-10-14 17:00:00 11.1 27 Sudoeste 41 Sudoeste 0 -- -- 81
2019-10-14 16:00:00 11.3 24 Sudoeste 39 Sudoeste 0.2 -- -- 84
2019-10-14 15:00:00 11 19 Sudoeste 36 Sudoeste 0 -- -- 85
2019-10-14 14:00:00 10.8 19 Sudoeste 37 Sudoeste 1 -- -- 87
2019-10-14 13:00:00 11 27 Sudoeste 44 Sudoeste 0 -- -- 81
2019-10-14 12:00:00 11.3 29 Sudoeste 42 Sudoeste 0 -- -- 79
2019-10-14 11:00:00 10 18 Sur 27 Sudoeste 1.8 -- -- 88
2019-10-14 10:00:00 9.4 6 Norte 22 Noroeste 1 -- -- 90
2019-10-14 09:00:00 10.7 19 Oeste 35 Oeste 3 -- -- 87
2019-10-14 08:00:00 13.8 16 Sur 24 Sur 0 -- -- 73
2019-10-14 07:00:00 13.2 13 Sudeste 18 Sur 0 -- -- 73
2019-10-14 06:00:00 12.4 0 Calma 9 Noroeste 0 -- -- 73
2019-10-14 05:00:00 12 4 Norte 22 Sudeste 0 -- -- 72
2019-10-14 04:00:00 13.9 18 Sudeste 24 Sudeste 0 -- -- 65
2019-10-14 03:00:00 12.6 20 Sudeste 23 Sudeste 0 -- -- 69
2019-10-14 02:00:00 12.7 13 Sudeste 17 Sudeste 0 -- -- 69
2019-10-14 01:00:00 13.7 9 Sudeste 15 Sur 0 -- -- 66
2019-10-14 00:00:00 14.2 9 Sur 15 Sur 0 -- -- 65
2019-10-13 23:00:00 14.4 9 Sur 24 Sur 0 -- -- 62
2019-10-13 22:00:00 16.1 17 Sudoeste 34 Sudoeste 0 -- -- 56
2019-10-13 21:00:00 16.7 25 Sudoeste 35 Sudoeste 0 -- -- 56
2019-10-13 20:00:00 17.6 22 Sur 33 Sudoeste 0 -- -- 52
2019-10-13 19:00:00 19.7 18 Sudoeste 39 Sudoeste 0 -- -- 47
2019-10-13 18:00:00 20.6 27 Sudoeste 39 Sudoeste 0 -- -- 47
2019-10-13 17:00:00 20.1 20 Sudoeste 36 Sudoeste 0 -- -- 51
2019-10-13 16:00:00 19.5 28 Sudoeste 45 Sur 0 -- -- 53
2019-10-13 15:00:00 19.4 24 Sudoeste 40 Sur 0 -- -- 54
2019-10-13 14:00:00 17.9 25 Sudoeste 40 Sur 0 -- -- 60
2019-10-13 13:00:00 16.5 27 Sur 41 Sur 0 -- -- 64
2019-10-13 12:00:00 16.2 29 Sudoeste 45 Sur 0 -- -- 65
2019-10-13 11:00:00 14.9 29 Sudoeste 47 Sudoeste 0 -- -- 70
2019-10-13 10:00:00 13.6 26 Sur 37 Sur 0 -- -- 75
2019-10-13 09:00:00 12.1 14 Sur 33 Sur 0 -- -- 81
2019-10-13 08:00:00 13 27 Sur 54 Sudoeste 0 -- -- 76
2019-10-13 07:00:00 14 22 Sudoeste 38 Sudoeste 0 -- -- 73
2019-10-13 06:00:00 14.6 21 Sudoeste 34 Sudoeste 0 -- -- 76
2019-10-13 05:00:00 14.4 21 Sudoeste 31 Sudoeste 0 -- -- 79
2019-10-13 04:00:00 14.7 16 Sur 28 Sudoeste 0 -- -- 79
2019-10-13 03:00:00 14.8 10 Sur 16 Sur 0 -- -- 74
2019-10-13 02:00:00 16 8 Sudoeste 16 Sudoeste 0 -- -- 61
2019-10-13 01:00:00 17 10 Sur 26 Sudoeste 0 -- -- 54
2019-10-13 00:00:00 19.2 21 Sur 30 Sur 0 -- -- 45
2019-10-12 23:00:00 20.3 22 Sur 35 Sur 0 -- -- 42
2019-10-12 22:00:00 21.5 25 Sur 33 Sur 0 -- -- 38
2019-10-12 21:00:00 20.6 15 Sur 40 Sudoeste 0 -- -- 41
2019-10-12 20:00:00 23.1 26 Sudoeste 53 Sudoeste 0 -- -- 35
2019-10-12 19:00:00 23.9 28 Sudoeste 59 Sudoeste 0 -- -- 33
2019-10-12 18:00:00 25.1 30 Sudoeste 51 Sudoeste 0 -- -- 30
2019-10-12 17:00:00 25.4 30 Sudoeste 54 Sudoeste 0 -- -- 31
2019-10-12 16:00:00 26.2 35 Sudoeste 55 Sur 0 -- -- 28
2019-10-12 15:00:00 24.8 26 Sudoeste 48 Sur 0 -- -- 39
2019-10-12 14:00:00 23.2 24 Sudoeste 37 Sur 0 -- -- 45
2019-10-12 13:00:00 21.4 24 Sudoeste 35 Sudoeste 0 -- -- 52
2019-10-12 12:00:00 19 16 Sudoeste 27 Sudoeste 0 -- -- 63
2019-10-12 11:00:00 16.8 11 Sudoeste 18 Sur 0 -- -- 70
2019-10-12 10:00:00 15.4 0 Calma 15 Sur 0 -- -- 73
2019-10-12 09:00:00 15 8 Sur 13 Sur 0 -- -- 73
2019-10-12 08:00:00 15.2 12 Sur 15 Sur 0 -- -- 70
2019-10-12 07:00:00 14.5 6 Sur 12 Sur 0 -- -- 71
2019-10-12 06:00:00 15.8 10 Sur 18 Sur 0 -- -- 65
2019-10-12 05:00:00 16.9 14 Sur 19 Sur 0 -- -- 62
2019-10-12 04:00:00 16.4 11 Sur 14 Sur 0 -- -- 64
2019-10-12 03:00:00 16.9 5 Sudoeste 14 Sur 0 -- -- 63
2019-10-12 02:00:00 16.3 11 Sur 21 Sur 0 -- -- 67
2019-10-12 01:00:00 18 15 Sur 21 Sur 0 -- -- 61
2019-10-12 00:00:00 18 13 Sur 17 Sur 0 -- -- 61
2019-10-11 23:00:00 18.2 11 Sur 21 Sur 0 -- -- 60
2019-10-11 22:00:00 20.4 14 Sur 25 Sur 0 -- -- 49
2019-10-11 21:00:00 21.9 6 Sudoeste 12 Sudoeste 0 -- -- 44
2019-10-11 20:00:00 22.8 4 Sudoeste 16 Sudoeste 0 -- -- 43
2019-10-11 19:00:00 24.4 11 Sudoeste 18 Sur 0 -- -- 40
2019-10-11 18:00:00 25.2 6 Sudoeste 27 Sudoeste 0 -- -- 34
2019-10-11 17:00:00 25.8 17 Sudoeste 26 Sudoeste 0 -- -- 33
2019-10-11 16:00:00 24.7 17 Sur 24 Sur 0 -- -- 34
2019-10-11 15:00:00 23.7 12 Sudoeste 22 Sudoeste 0 -- -- 36
2019-10-11 14:00:00 22 9 Sudoeste 18 Sudoeste 0 -- -- 38
2019-10-11 13:00:00 19.7 9 Sur 13 Sudeste 0 -- -- 41
2019-10-11 12:00:00 16 0 Calma -- -- 0 -- -- 57
2019-10-11 11:00:00 12.3 0 Calma 6 Nordeste 0 -- -- 69
2019-10-11 10:00:00 8.1 4 Norte 8 Norte 0 -- -- 86
2019-10-11 09:00:00 5.7 4 Nordeste 6 Norte 0 -- -- 84
2019-10-11 08:00:00 5.5 6 Norte 7 Norte 0 -- -- 84
2019-10-11 07:00:00 6.3 3 Norte 10 Nordeste 0 -- -- 81
2019-10-11 06:00:00 6.2 9 Nordeste 10 Nordeste 0 -- -- 84
2019-10-11 05:00:00 6.7 6 Norte 8 Nordeste 0 -- -- 81
2019-10-11 04:00:00 6.9 6 Nordeste 8 Norte 0 -- -- 79
2019-10-11 03:00:00 7.3 6 Norte 11 Norte 0 -- -- 83
2019-10-11 02:00:00 8.1 5 Norte 8 Norte 0 -- -- 81
2019-10-11 01:00:00 9.4 4 Nordeste 12 Este 0 -- -- 74
2019-10-11 00:00:00 11.8 9 Nordeste 13 Norte 0 -- -- 62
2019-10-10 23:00:00 14.9 0 Calma 5 Norte 0 -- -- 48
2019-10-10 22:00:00 14.2 5 Norte 10 Sudeste 0 -- -- 52
2019-10-10 21:00:00 16.9 10 Sudeste 12 Sudeste 0 -- -- 44
2019-10-10 20:00:00 19.2 7 Sudeste 9 Sudeste 0 -- -- 38
2019-10-10 19:00:00 21 4 Sudeste 10 Sudeste 0 -- -- 37
2019-10-10 18:00:00 21.2 4 Este 13 Este 0 -- -- 33
2019-10-10 17:00:00 21 5 Este 12 Este 0 -- -- 38
2019-10-10 16:00:00 20.3 4 Nordeste 15 Nordeste 0 -- -- 39
2019-10-10 15:00:00 19.2 3 Sudeste 16 Nordeste 0 -- -- 46
2019-10-10 14:00:00 17.6 7 Este 16 Este 0 -- -- 48
2019-10-10 13:00:00 16.3 10 Este 19 Este 0 -- -- 53
2019-10-10 12:00:00 14.4 12 Nordeste 18 Nordeste 0 -- -- 62
2019-10-10 11:00:00 10.6 10 Nordeste 16 Norte 0 -- -- 74
2019-10-10 10:00:00 7.2 7 Nordeste 14 Norte 0 -- -- 88
2019-10-10 09:00:00 3.9 9 Norte 10 Norte 0 -- -- 91
2019-10-10 08:00:00 4.2 7 Norte 9 Norte 0 -- -- 88
2019-10-10 07:00:00 5.3 8 Norte 12 Nordeste 0 -- -- 90
2019-10-10 06:00:00 5.2 6 Norte 10 Norte 0 -- -- 88
2019-10-10 05:00:00 6 5 Norte 9 Nordeste 0 -- -- 85
2019-10-10 04:00:00 6.7 6 Norte 9 Nordeste 0 -- -- 86
2019-10-10 03:00:00 7.8 6 Nordeste 7 Nordeste 0 -- -- 81
2019-10-10 02:00:00 8.6 6 Nordeste 8 Nordeste 0 -- -- 77
2019-10-10 01:00:00 9.1 7 Este 10 Este 0 -- -- 75
2019-10-10 00:00:00 9.8 6 Norte 9 Nordeste 0 -- -- 75
2019-10-09 23:00:00 11.2 6 Norte 26 Este 0 -- -- 71
2019-10-09 22:00:00 13.1 18 Este 25 Este 0 -- -- 66
2019-10-09 21:00:00 14.9 8 Noroeste 14 Noroeste 0 -- -- 51
2019-10-09 20:00:00 18.8 0 Calma 0 Calma 0 -- -- 30
2019-10-09 19:00:00 19.8 0 Calma 5 Norte 0 -- -- 31
2019-10-09 18:00:00 19.8 3 Norte 14 Noroeste 0 -- -- 33
2019-10-09 17:00:00 19.9 7 Noroeste 15 Noroeste 0 -- -- 27
2019-10-09 16:00:00 19.1 3 Nordeste 16 Nordeste 0 -- -- 31
2019-10-09 15:00:00 18.5 8 Noroeste 16 Noroeste 0 -- -- 39
2019-10-09 14:00:00 17 6 Noroeste 17 Norte 0 -- -- 44
2019-10-09 13:00:00 15.2 8 Nordeste 22 Norte 0 -- -- 49
2019-10-09 12:00:00 14.1 16 Norte 24 Norte 0 -- -- 53
2019-10-09 11:00:00 12 17 Norte 23 Norte 0 -- -- 62
2019-10-09 10:00:00 9.7 14 Norte 18 Norte 0 -- -- 79
2019-10-09 09:00:00 8 10 Noroeste 17 Noroeste 0 -- -- 86
2019-10-09 08:00:00 8.5 7 Norte 21 Noroeste 0 -- -- 85
2019-10-09 07:00:00 9.6 17 Noroeste 26 Noroeste 0 -- -- 83
2019-10-09 06:00:00 10.7 13 Noroeste 33 Noroeste 0 -- -- 81
2019-10-09 05:00:00 12.5 23 Noroeste 35 Noroeste 0 -- -- 76
2019-10-09 04:00:00 12.1 10 Norte 23 Noroeste 0 -- -- 83
2019-10-09 03:00:00 13.1 10 Norte 21 Norte 0 -- -- 82
2019-10-09 02:00:00 14.3 10 Norte 28 Noroeste 0 -- -- 79
2019-10-09 01:00:00 15.6 19 Noroeste 31 Noroeste 0 -- -- 77
2019-10-09 00:00:00 16.1 12 Noroeste 18 Noroeste 0 -- -- 78
2019-10-08 23:00:00 17.1 8 Noroeste 18 Noroeste 0 -- -- 74
2019-10-08 22:00:00 18.3 10 Noroeste 19 Noroeste 0 -- -- 70
2019-10-08 21:00:00 19.3 14 Noroeste 22 Noroeste 0 -- -- 63
2019-10-08 20:00:00 21.1 12 Noroeste 23 Norte 0 -- -- 55
2019-10-08 19:00:00 23.4 18 Noroeste 24 Noroeste 0 -- -- 48
2019-10-08 18:00:00 26 6 Noroeste 13 Noroeste 0 -- -- 39
2019-10-08 17:00:00 26.1 4 Sudoeste 14 Oeste 0 -- -- 34
2019-10-08 16:00:00 25.6 4 Sudoeste 21 Sudoeste 0 -- -- 35
2019-10-08 15:00:00 24.1 6 Oeste 13 Oeste 0 -- -- 38
2019-10-08 14:00:00 22.2 0 Calma 14 Oeste 0 -- -- 41
2019-10-08 13:00:00 20.2 7 Oeste 12 Noroeste 0 -- -- 43
2019-10-08 12:00:00 17.4 0 Calma 8 Noroeste 0 -- -- 45
2019-10-08 11:00:00 13.8 5 Noroeste 9 Noroeste 0 -- -- 70
2019-10-08 10:00:00 11.2 4 Nordeste 9 Noroeste 0 -- -- 78
2019-10-08 09:00:00 10.4 8 Este 14 Este 0 -- -- 74
2019-10-08 08:00:00 8.1 8 Norte 11 Este 0 -- -- 84
2019-10-08 07:00:00 9.4 7 Nordeste 10 Este 0 -- -- 78
2019-10-08 06:00:00 9.9 10 Este 11 Este 0 -- -- 76
2019-10-08 05:00:00 9 9 Norte 10 Norte 0 -- -- 82
2019-10-08 04:00:00 9.5 7 Norte 10 Norte 0 -- -- 81
2019-10-08 03:00:00 10.4 8 Norte 14 Este 0 -- -- 79
2019-10-08 02:00:00 14.3 10 Nordeste 20 Este 0 -- -- 57
2019-10-08 01:00:00 14.3 19 Este 21 Este 0 -- -- 57
2019-10-08 00:00:00 14.6 0 Calma -- -- 0 -- -- 61
2019-10-07 23:00:00 18.4 0 Calma 8 Sudeste 0 -- -- 41
2019-10-07 22:00:00 19.4 9 Sudeste 13 Sudeste 0 -- -- 38
2019-10-07 21:00:00 20.3 12 Sudeste 15 Sudeste 0 -- -- 37
2019-10-07 20:00:00 23.3 10 Sudeste 12 Sudeste 0 -- -- 32
2019-10-07 19:00:00 25.8 5 Sur 10 Sur 0 -- -- 29
2019-10-07 18:00:00 26.2 5 Sur 13 Sur 0 -- -- 27
2019-10-07 17:00:00 25.7 5 Sur 14 Sur 0 -- -- 30
2019-10-07 16:00:00 24.4 3 Sudeste 15 Oeste 0 -- -- 31
2019-10-07 15:00:00 23.2 5 Sudoeste 13 Sudoeste 0 -- -- 34
2019-10-07 14:00:00 20.7 5 Sudoeste 13 Sudoeste 0 -- -- 44
2019-10-07 13:00:00 18 4 Oeste 9 Sudoeste 0 -- -- 51
2019-10-07 12:00:00 15.5 3 Sudoeste 9 Norte 0 -- -- 66
2019-10-07 11:00:00 12.8 4 Noroeste 8 Norte 0 -- -- 78
2019-10-07 10:00:00 10.3 3 Nordeste 6 Nordeste 0 -- -- 90
2019-10-07 09:00:00 7.8 5 Nordeste 6 Este 0 -- -- 90
2019-10-07 08:00:00 7.6 0 Calma -- -- 0 -- -- 89
2019-10-07 07:00:00 9.1 0 Calma -- -- 0 -- -- 87
2019-10-07 06:00:00 9.4 0 Calma 10 Este 0 -- -- 85
2019-10-07 05:00:00 11.6 4 Este 24 Este 0 -- -- 85
2019-10-07 04:00:00 12.1 19 Sudeste 28 Sudeste 0 -- -- 84
2019-10-07 03:00:00 12.1 14 Este 24 Sudeste 0 -- -- 84
2019-10-07 02:00:00 12.8 8 Sudeste 11 Este 0 -- -- 79
2019-10-07 01:00:00 13.6 2 Nordeste 18 Sudeste 0 -- -- 76
2019-10-07 00:00:00 14.1 8 Nordeste 28 Norte 0 -- -- 57
2019-10-06 23:00:00 15.4 16 Norte 22 Norte 0 -- -- 56
2019-10-06 22:00:00 17.6 12 Norte 18 Noroeste 0 -- -- 51
2019-10-06 21:00:00 19.2 8 Noroeste 21 Oeste 0 -- -- 40
2019-10-06 20:00:00 21.1 12 Sudoeste 16 Sudoeste 0 -- -- 41
2019-10-06 19:00:00 23.5 11 Sudoeste 17 Sudoeste 0 -- -- 37
2019-10-06 18:00:00 23.8 10 Sudoeste 19 Sudoeste 0 -- -- 35
2019-10-06 17:00:00 23 9 Sudoeste 20 Oeste 0 -- -- 37
2019-10-06 16:00:00 22.4 10 Sudoeste 19 Sudoeste 0 -- -- 41
2019-10-06 15:00:00 21 9 Sur 17 Sudoeste 0 -- -- 50
2019-10-06 14:00:00 19.7 9 Sudoeste 15 Sur 0 -- -- 54
2019-10-06 13:00:00 18 6 Sudoeste 12 Sudoeste 0 -- -- 62
2019-10-06 12:00:00 16.4 4 Sur 11 Sudoeste 0 -- -- 65
2019-10-06 11:00:00 14.4 7 Sur 12 Sudoeste 0 -- -- 71
2019-10-06 10:00:00 12.1 8 Sudeste 10 Sudeste 0 -- -- 76
2019-10-06 09:00:00 9.1 0 Calma 9 Noroeste 0 -- -- 82
2019-10-06 08:00:00 10.2 2 Este 12 Este 0 -- -- 78
2019-10-06 07:00:00 9.5 9 Nordeste 10 Norte 0 -- -- 82
2019-10-06 06:00:00 9.8 6 Nordeste 13 Norte 0 -- -- 83
2019-10-06 05:00:00 9.8 12 Norte 15 Norte 0 -- -- 85
2019-10-06 04:00:00 11 6 Norte 19 Norte 0 -- -- 77
2019-10-06 03:00:00 12 7 Norte 15 Noroeste 0 -- -- 73
2019-10-06 02:00:00 12.6 7 Noroeste 11 Noroeste 0 -- -- 71
2019-10-06 01:00:00 14 5 Noroeste 19 Noroeste 0 -- -- 64
2019-10-06 00:00:00 14.5 10 Noroeste 20 Noroeste 0 -- -- 62
2019-10-05 23:00:00 15.7 9 Noroeste 17 Noroeste 0 -- -- 62
2019-10-05 22:00:00 17.1 10 Norte 14 Noroeste 0 -- -- 55
2019-10-05 21:00:00 18.8 8 Noroeste 15 Norte 0 -- -- 58
2019-10-05 20:00:00 21.6 8 Sur 9 Sur 0 -- -- 45
2019-10-05 19:00:00 22.9 8 Sur 13 Oeste 0 -- -- 42
2019-10-05 18:00:00 23.6 6 Oeste 19 Sudoeste 0 -- -- 41
2019-10-05 17:00:00 22.9 9 Oeste 21 Sudoeste 0 -- -- 44
2019-10-05 16:00:00 21.9 10 Sudoeste 18 Sudoeste 0 -- -- 48
2019-10-05 15:00:00 20.9 9 Sudoeste 17 Sudoeste 0 -- -- 56
2019-10-05 14:00:00 19.1 7 Sudoeste 13 Oeste 0 -- -- 61
2019-10-05 13:00:00 17 6 Oeste 12 Oeste 0 -- -- 69
2019-10-05 12:00:00 15.3 0 Calma 9 Oeste 0 -- -- 74
2019-10-05 11:00:00 12.9 0 Calma 7 Norte 0 -- -- 82
2019-10-05 10:00:00 10.6 0 Calma 7 Este 0 -- -- 92
2019-10-05 09:00:00 8.2 4 Nordeste 8 Norte 0 -- -- 93
2019-10-05 08:00:00 8 6 Nordeste 8 Norte 0 -- -- 93
2019-10-05 07:00:00 8 4 Norte 8 Nordeste 0 -- -- 91
2019-10-05 06:00:00 8.9 6 Nordeste 8 Nordeste 0 -- -- 90
2019-10-05 05:00:00 9 6 Norte 9 Norte 0 -- -- 89
2019-10-05 04:00:00 10.1 5 Norte 11 Nordeste 0 -- -- 86
2019-10-05 03:00:00 12 10 Nordeste 23 Este 0 -- -- 85
2019-10-05 02:00:00 13 14 Este 23 Este 0 -- -- 82
2019-10-05 01:00:00 13.1 8 Nordeste 13 Norte 0 -- -- 78
2019-10-05 00:00:00 15.1 4 Norte 9 Noroeste 0 -- -- 72
2019-10-04 23:00:00 16.2 5 Noroeste 13 Norte 0 -- -- 68
2019-10-04 22:00:00 16.4 7 Norte 15 Este 0 -- -- 67
2019-10-04 21:00:00 19 14 Sudeste 15 Sudeste 0 -- -- 53
2019-10-04 20:00:00 21.6 5 Sudeste 11 Sur 0 -- -- 46
2019-10-04 19:00:00 22.7 8 Sur 14 Sudeste 0 -- -- 46
2019-10-04 18:00:00 23.1 5 Sur 17 Sur 0 -- -- 46
2019-10-04 17:00:00 23 9 Sudoeste 21 Sudoeste 0 -- -- 46
2019-10-04 16:00:00 22.6 12 Sudoeste 25 Sudoeste 0 -- -- 48
2019-10-04 15:00:00 22.3 11 Sudoeste 23 Sudoeste 0 -- -- 52
2019-10-04 14:00:00 20.5 6 Sudoeste 21 Sudoeste 0 -- -- 60
2019-10-04 13:00:00 18.3 0 Calma 3 Sur 0 -- -- 67
2019-10-04 12:00:00 16.8 0 Calma 3 Norte 0 -- -- 72
2019-10-04 11:00:00 14.8 0 Calma 8 Nordeste 0 -- -- 75
2019-10-04 10:00:00 10.6 5 Norte 9 Norte 0 -- -- 86
2019-10-04 09:00:00 8.1 0 Calma 13 Este 0 -- -- 86
2019-10-04 08:00:00 8.4 10 Nordeste 14 Nordeste 0 -- -- 88
2019-10-04 07:00:00 8.2 6 Nordeste 14 Nordeste 0 -- -- 88
2019-10-04 06:00:00 8.7 0 Calma 8 Noroeste 0 -- -- 86
2019-10-04 05:00:00 10 4 Norte 14 Norte 0 -- -- 82
2019-10-04 04:00:00 12.2 0 Calma 17 Este 0 -- -- 74
2019-10-04 03:00:00 12.9 13 Nordeste 16 Nordeste 0 -- -- 72
2019-10-04 02:00:00 13.2 9 Nordeste 14 Norte 0 -- -- 81
2019-10-04 01:00:00 14.3 12 Norte 18 Noroeste 0 -- -- 80
2019-10-04 00:00:00 15.5 13 Noroeste 24 Noroeste 0 -- -- 77
2019-10-03 23:00:00 16 13 Noroeste 21 Noroeste 0 -- -- 74
2019-10-03 22:00:00 16.7 11 Noroeste 18 Noroeste 0 -- -- 65
2019-10-03 21:00:00 18.7 11 Noroeste 19 Noroeste 0 -- -- 50
2019-10-03 20:00:00 21.1 10 Oeste 14 Noroeste 0 -- -- 41
2019-10-03 19:00:00 24.3 12 Sur 18 Sudoeste 0 -- -- 30
2019-10-03 18:00:00 25.2 10 Sudoeste 17 Sudoeste 0 -- -- 28
2019-10-03 17:00:00 23.8 5 Oeste 18 Oeste 0 -- -- 34
2019-10-03 16:00:00 22.5 8 Oeste 19 Oeste 0 -- -- 33
2019-10-03 15:00:00 20.6 9 Oeste 18 Oeste 0 -- -- 40
2019-10-03 14:00:00 18.7 8 Oeste 19 Sudoeste 0 -- -- 53
2019-10-03 13:00:00 16.3 4 Oeste 13 Sudoeste 0 -- -- 60
2019-10-03 12:00:00 14.6 4 Sudoeste 10 Sudoeste 0 -- -- 67
2019-10-03 11:00:00 12.2 0 Calma 8 Este 0 -- -- 78
2019-10-03 10:00:00 7.9 0 Calma 7 Norte 0 -- -- 89
2019-10-03 09:00:00 6.5 3 Norte 10 Este 0 -- -- 88
2019-10-03 08:00:00 7.1 6 Este 8 Este 0 -- -- 89
2019-10-03 07:00:00 7.3 7 Nordeste 10 Este 0 -- -- 89
2019-10-03 06:00:00 7.4 9 Este 11 Este 0 -- -- 89
2019-10-03 05:00:00 7.4 6 Norte 8 Norte 0 -- -- 88
2019-10-03 04:00:00 9.7 3 Norte 9 Este 0 -- -- 86
2019-10-03 03:00:00 10.3 6 Nordeste 13 Este 0 -- -- 83
2019-10-03 02:00:00 11.2 6 Este 22 Nordeste 0 -- -- 80
2019-10-03 01:00:00 11.7 6 Norte 33 Este 0 -- -- 77
2019-10-03 00:00:00 12.8 24 Sudeste 32 Este 0 -- -- 71
2019-10-02 23:00:00 13.4 7 Nordeste 21 Este 0 -- -- 63
2019-10-02 22:00:00 15.5 10 Este 12 Este 0 -- -- 49
2019-10-02 21:00:00 17 9 Este 11 Este 0 -- -- 45
2019-10-02 20:00:00 18.7 0 Calma 10 Noroeste 0 -- -- 40
2019-10-02 19:00:00 19.9 3 Nordeste 11 Norte 0 -- -- 41
2019-10-02 18:00:00 20.3 6 Norte 14 Noroeste 0 -- -- 40
2019-10-02 17:00:00 20.3 4 Noroeste 15 Norte 0 -- -- 40
2019-10-02 16:00:00 19.3 7 Nordeste 21 Noroeste 0 -- -- 45
2019-10-02 15:00:00 18.3 6 Norte 23 Noroeste 0 -- -- 45
2019-10-02 14:00:00 17.2 8 Noroeste 23 Noroeste 0 -- -- 50
2019-10-02 13:00:00 16.1 12 Norte 26 Noroeste 0 -- -- 50
2019-10-02 12:00:00 15.1 14 Noroeste 24 Noroeste 0 -- -- 55
2019-10-02 11:00:00 13.5 15 Noroeste 24 Noroeste 0 -- -- 65
2019-10-02 10:00:00 10.7 3 Oeste 12 Oeste 0 -- -- 74
2019-10-02 09:00:00 8.6 5 Noroeste 9 Oeste 0 -- -- 79
2019-10-02 08:00:00 8.6 8 Noroeste 19 Noroeste 0 -- -- 79
2019-10-02 07:00:00 8.9 9 Norte 26 Noroeste 0 -- -- 78
2019-10-02 06:00:00 9.5 13 Noroeste 25 Noroeste 0 -- -- 77
2019-10-02 05:00:00 10.3 16 Noroeste 27 Noroeste 0 -- -- 76
2019-10-02 04:00:00 11 19 Noroeste 32 Noroeste 0 -- -- 73
2019-10-02 03:00:00 11.5 20 Noroeste 32 Oeste 0 -- -- 72
2019-10-02 02:00:00 12.3 17 Noroeste 35 Oeste 0 -- -- 70
2019-10-02 01:00:00 13.1 22 Oeste 33 Oeste 0 -- -- 67
2019-10-02 00:00:00 -- -- -- -- -- -- -- -- --
2019-10-01 23:00:00 -- -- -- -- -- -- -- -- --
2019-10-01 22:00:00 -- -- -- -- -- -- -- -- --
2019-10-01 21:00:00 -- -- -- -- -- -- -- -- --
2019-10-01 20:00:00 -- -- -- -- -- -- -- -- --
2019-10-01 19:00:00 -- -- -- -- -- -- -- -- --
2019-10-01 18:00:00 -- -- -- -- -- -- -- -- --
2019-10-01 17:00:00 -- -- -- -- -- -- -- -- --
2019-10-01 16:00:00 -- -- -- -- -- -- -- -- --
2019-10-01 15:00:00 -- -- -- -- -- -- -- -- --
2019-10-01 14:00:00 -- -- -- -- -- -- -- -- --
2019-10-01 13:00:00 -- -- -- -- -- -- -- -- --
2019-10-01 12:00:00 -- -- -- -- -- -- -- -- --
2019-10-01 11:00:00 16.1 15 Oeste 22 Oeste 0 -- -- 73
2019-10-01 10:00:00 14.6 6 Sudoeste 11 Oeste 0 -- -- 77
2019-10-01 09:00:00 12.9 7 Noroeste 17 Noroeste 0 -- -- 83
2019-10-01 08:00:00 12.7 10 Noroeste 14 Noroeste 0 -- -- 84
2019-10-01 07:00:00 13.7 8 Noroeste 12 Noroeste 0 -- -- 83
2019-10-01 06:00:00 13.1 0 Calma 9 Oeste 0 -- -- 87
2019-10-01 05:00:00 13.2 8 Noroeste 11 Oeste 0 -- -- 84
2019-10-01 04:00:00 14.9 4 Sudoeste 6 Oeste 0 -- -- 79
2019-10-01 03:00:00 16.3 3 Sudoeste 5 Noroeste 0 -- -- 73
2019-10-01 02:00:00 17.1 3 Norte 7 Nordeste 0 -- -- 70
2019-10-01 01:00:00 17.2 3 Norte 17 Noroeste 0 -- -- 70
2019-10-01 00:00:00 17.4 8 Norte 12 Noroeste 0 -- -- 63
2019-09-30 23:00:00 19.5 7 Sudoeste 17 Sudoeste 0 -- -- 54
2019-09-30 22:00:00 19.7 13 Oeste 18 Oeste 0 -- -- 54
2019-09-30 21:00:00 21.3 14 Sudoeste 22 Sudoeste 0 -- -- 48
2019-09-30 20:00:00 23.9 15 Sudoeste 26 Sudoeste 0 -- -- 41
2019-09-30 19:00:00 25.9 19 Sudoeste 26 Sudoeste 0 -- -- 35
2019-09-30 18:00:00 26.3 13 Sudoeste 27 Sur 0 -- -- 42
2019-09-30 17:00:00 25.7 8 Sur 23 Sur 0 -- -- 46
2019-09-30 16:00:00 24.6 6 Sur 20 Sudoeste 0 -- -- 49
2019-09-30 15:00:00 23.6 6 Sudoeste 20 Sudoeste 0 -- -- 52
2019-09-30 14:00:00 22.4 6 Sur 18 Sur 0 -- -- 57
2019-09-30 13:00:00 20.7 5 Sudeste 14 Sur 0 -- -- 65
2019-09-30 12:00:00 17.8 5 Nordeste 11 Norte 0 -- -- 78
2019-09-30 11:00:00 14.9 8 Norte 13 Norte 0 -- -- 88
2019-09-30 10:00:00 14.1 8 Norte 11 Nordeste 0 -- -- 90
2019-09-30 09:00:00 11.8 6 Nordeste 8 Nordeste 0 -- -- 93
2019-09-30 08:00:00 11.9 0 Calma 10 Sur 0 -- -- 92
2019-09-30 07:00:00 11.8 8 Sur 10 Sur 0 -- -- 91
2019-09-30 06:00:00 12.7 7 Sudoeste 11 Sudoeste 0 -- -- 90
2019-09-30 05:00:00 13.2 5 Oeste 8 Noroeste 0 -- -- 88
2019-09-30 04:00:00 13.9 9 Oeste 14 Noroeste 0 -- -- 87
2019-09-30 03:00:00 14.3 4 Norte 19 Norte 0 -- -- 86
2019-09-30 02:00:00 14.3 17 Norte 21 Norte 0 -- -- 86
2019-09-30 01:00:00 15.4 9 Norte 21 Oeste 0 -- -- 78
2019-09-30 00:00:00 16.4 9 Noroeste 13 Oeste 0 -- -- 77
2019-09-29 23:00:00 16.7 9 Noroeste 15 Noroeste 0 -- -- 78
2019-09-29 22:00:00 18.1 9 Noroeste 30 Noroeste 0 -- -- 75
2019-09-29 21:00:00 19.6 10 Noroeste 16 Noroeste 0 -- -- 64
2019-09-29 20:00:00 22.3 7 Noroeste 25 Noroeste 0 -- -- 51
2019-09-29 19:00:00 24.8 12 Noroeste 19 Noroeste 0 -- -- 43
2019-09-29 18:00:00 25.9 9 Noroeste 15 Noroeste 0 -- -- 34
2019-09-29 17:00:00 26.2 4 Sudeste 17 Oeste 0 -- -- 33
2019-09-29 16:00:00 25.4 10 Oeste 20 Sudoeste 0 -- -- 32
2019-09-29 15:00:00 23.8 5 Sudoeste 18 Sudoeste 0 -- -- 36
2019-09-29 14:00:00 22 10 Sudoeste 17 Sudoeste 0 -- -- 31
2019-09-29 13:00:00 18.7 7 Noroeste 17 Oeste 0 -- -- 38
2019-09-29 12:00:00 17.4 9 Sudoeste 15 Sur 0 -- -- 40
2019-09-29 11:00:00 12.6 2 Noroeste 8 Sur 0 -- -- 73
2019-09-29 10:00:00 9.4 0 Calma 9 Norte 0 -- -- 88
2019-09-29 09:00:00 6.2 0 Calma 6 Norte 0 -- -- 88
2019-09-29 08:00:00 6 5 Norte 11 Norte 0 -- -- 87
2019-09-29 07:00:00 6.6 7 Nordeste 9 Nordeste 0 -- -- 90
2019-09-29 06:00:00 6.5 8 Norte 13 Noroeste 0 -- -- 88
2019-09-29 05:00:00 7.8 4 Nordeste 10 Norte 0 -- -- 87
2019-09-29 04:00:00 8.4 2 Nordeste 7 Noroeste 0 -- -- 85
2019-09-29 03:00:00 9 8 Norte 13 Nordeste 0 -- -- 81
2019-09-29 02:00:00 9.3 10 Norte 14 Nordeste 0 -- -- 83
2019-09-29 01:00:00 10.6 7 Norte 10 Noroeste 0 -- -- 81
2019-09-29 00:00:00 14.7 6 Sudoeste 13 Sur 0 -- -- 61
2019-09-28 23:00:00 18.1 10 Sur 19 Sur 0 -- -- 41
2019-09-28 22:00:00 17.9 10 Sur 13 Sudeste 0 -- -- 44
2019-09-28 21:00:00 19.4 6 Sudeste 8 Este 0 -- -- 43
2019-09-28 20:00:00 21.3 3 Sur 12 Sur 0 -- -- 41
2019-09-28 19:00:00 21.8 6 Sudeste 13 Sudoeste 0 -- -- 41
2019-09-28 18:00:00 22.5 6 Sudoeste 17 Sur 0 -- -- 37
2019-09-28 17:00:00 21.9 4 Sudoeste 16 Sudoeste 0 -- -- 45
2019-09-28 16:00:00 21.1 4 Oeste 17 Sudoeste 0 -- -- 43
2019-09-28 15:00:00 19.8 8 Sudoeste 18 Sudoeste 0 -- -- 46
2019-09-28 14:00:00 18.1 7 Oeste 14 Oeste 0 -- -- 52
2019-09-28 13:00:00 16.5 5 Oeste 11 Noroeste 0 -- -- 67
2019-09-28 12:00:00 16 3 Nordeste 10 Nordeste 0 -- -- 70
2019-09-28 11:00:00 13.9 8 Nordeste 12 Nordeste 0 -- -- 79
2019-09-28 10:00:00 11.9 7 Nordeste 13 Este 0 -- -- 90
2019-09-28 09:00:00 9.6 2 Este 5 Nordeste 0 -- -- 94
2019-09-28 08:00:00 7.8 4 Norte 8 Nordeste 0 -- -- 93
2019-09-28 07:00:00 6.4 5 Norte 9 Norte 0 -- -- 91
2019-09-28 06:00:00 7 5 Norte 8 Norte 0 -- -- 89
2019-09-28 05:00:00 9.8 5 Norte 6 Norte 0 -- -- 86
2019-09-28 04:00:00 11.4 3 Noroeste 6 Noroeste 0 -- -- 84
2019-09-28 03:00:00 11.8 4 Norte 9 Noroeste 0 -- -- 82
2019-09-28 02:00:00 12.1 5 Noroeste 11 Noroeste 0 -- -- 79
2019-09-28 01:00:00 12.9 7 Norte 9 Norte 0 -- -- 76
2019-09-28 00:00:00 13.4 9 Noroeste 17 Noroeste 0 -- -- 73
2019-09-27 23:00:00 14.2 13 Noroeste 21 Oeste 0 -- -- 70
2019-09-27 22:00:00 14.9 10 Noroeste 19 Noroeste 0 -- -- 67
2019-09-27 21:00:00 16.3 11 Noroeste 20 Noroeste 0 -- -- 62
2019-09-27 20:00:00 18.5 12 Noroeste 32 Noroeste 0 -- -- 57
2019-09-27 19:00:00 20.1 22 Noroeste 31 Noroeste 0 -- -- 52
2019-09-27 18:00:00 21.2 20 Noroeste 30 Noroeste 0 -- -- 52
2019-09-27 17:00:00 21 22 Noroeste 35 Noroeste 0 -- -- 57
2019-09-27 16:00:00 22.7 13 Noroeste 23 Noroeste 0 -- -- 44
2019-09-27 15:00:00 21.7 12 Noroeste 25 Oeste 0 -- -- 47
2019-09-27 14:00:00 21.1 12 Sudoeste 24 Sudoeste 0 -- -- 46
2019-09-27 13:00:00 19.3 12 Sudoeste 22 Sudoeste 0 -- -- 50
2019-09-27 12:00:00 17 10 Sudoeste 18 Sudoeste 0 -- -- 60
2019-09-27 11:00:00 13.7 8 Oeste 19 Sudoeste 0 -- -- 74
2019-09-27 10:00:00 11.2 11 Sudoeste 15 Sudoeste 0 -- -- 80
2019-09-27 09:00:00 9.2 8 Sur 10 Sudoeste 0 -- -- 88
2019-09-27 08:00:00 9.1 7 Sur 12 Sudoeste 0 -- -- 87
2019-09-27 07:00:00 10.2 7 Sudoeste 12 Oeste 0 -- -- 82
2019-09-27 06:00:00 10.4 6 Sudoeste 11 Oeste 0 -- -- 83
2019-09-27 05:00:00 11.5 5 Oeste 6 Noroeste 0 -- -- 80
2019-09-27 04:00:00 11.9 8 Noroeste 15 Oeste 0 -- -- 79
2019-09-27 03:00:00 12.5 10 Oeste 15 Noroeste 0 -- -- 73
2019-09-27 02:00:00 13.6 4 Noroeste 13 Noroeste 0 -- -- 66
2019-09-27 01:00:00 14.1 7 Noroeste 14 Oeste 0 -- -- 62
2019-09-27 00:00:00 15.2 9 Noroeste 13 Noroeste 0 -- -- 53
2019-09-26 23:00:00 17 8 Noroeste 12 Noroeste 0 -- -- 46
2019-09-26 22:00:00 17.7 5 Norte 10 Noroeste 0 -- -- 44
2019-09-26 21:00:00 19 9 Noroeste 18 Noroeste 0 -- -- 40
2019-09-26 20:00:00 21.2 12 Noroeste 19 Noroeste 0 -- -- 32
2019-09-26 19:00:00 24.8 10 Sudoeste 21 Sudoeste 0 -- -- 27
2019-09-26 18:00:00 24.7 10 Sudoeste 20 Sudoeste 0 -- -- 30
2019-09-26 17:00:00 23.9 7 Oeste 20 Sudoeste 0 -- -- 31
2019-09-26 16:00:00 22.9 8 Sudoeste 20 Sudoeste 0 -- -- 37
2019-09-26 15:00:00 21.5 12 Sudoeste 20 Sudoeste 0 -- -- 41
2019-09-26 14:00:00 19.8 6 Sur 15 Sur 0 -- -- 51
2019-09-26 13:00:00 17.7 6 Sur 12 Sudoeste 0 -- -- 58
2019-09-26 12:00:00 15.5 3 Norte 7 Oeste 0 -- -- 70
2019-09-26 11:00:00 13.3 5 Noroeste 10 Noroeste 0 -- -- 77
2019-09-26 10:00:00 11.9 4 Sudoeste 8 Sudoeste 0 -- -- 82
2019-09-26 09:00:00 9.7 5 Sur 6 Sur 0 -- -- 88
2019-09-26 08:00:00 10.2 4 Noroeste 9 Norte 0 -- -- 85
2019-09-26 07:00:00 10.6 6 Norte 10 Norte 0 -- -- 82
2019-09-26 06:00:00 11 5 Norte 9 Noroeste 0 -- -- 82
2019-09-26 05:00:00 11.4 4 Noroeste 11 Noroeste 0 -- -- 81
2019-09-26 04:00:00 11.6 9 Noroeste 15 Noroeste 0 -- -- 80
2019-09-26 03:00:00 12.2 4 Norte 9 Noroeste 0 -- -- 77
2019-09-26 02:00:00 12.6 4 Noroeste 18 Noroeste 0 -- -- 76
2019-09-26 01:00:00 12.6 8 Norte 14 Norte 0 -- -- 77
2019-09-26 00:00:00 13.4 6 Noroeste 15 Noroeste 0 -- -- 74
2019-09-25 23:00:00 14.3 3 Norte 17 Noroeste 0 -- -- 70
2019-09-25 22:00:00 -- -- -- -- -- -- -- -- --
2019-09-25 21:00:00 -- -- -- -- -- -- -- -- --
2019-09-25 20:00:00 -- -- -- -- -- -- -- -- --
2019-09-25 19:00:00 -- -- -- -- -- -- -- -- --
2019-09-25 18:00:00 -- -- -- -- -- -- -- -- --
2019-09-25 17:00:00 -- -- -- -- -- -- -- -- --
2019-09-25 16:00:00 -- -- -- -- -- -- -- -- --
2019-09-25 15:00:00 -- -- -- -- -- -- -- -- --
2019-09-25 14:00:00 -- -- -- -- -- -- -- -- --
2019-09-25 13:00:00 -- -- -- -- -- -- -- -- --
2019-09-25 12:00:00 -- -- -- -- -- -- -- -- --
2019-09-25 11:00:00 -- -- -- -- -- -- -- -- --
2019-09-25 10:00:00 -- -- -- -- -- -- -- -- --
2019-09-25 09:00:00 -- -- -- -- -- -- -- -- --
2019-09-25 08:00:00 -- -- -- -- -- -- -- -- --
2019-09-25 07:00:00 -- -- -- -- -- -- -- -- --
2019-09-25 06:00:00 -- -- -- -- -- -- -- -- --
2019-09-25 05:00:00 -- -- -- -- -- -- -- -- --
2019-09-25 04:00:00 -- -- -- -- -- -- -- -- --
2019-09-25 03:00:00 -- -- -- -- -- -- -- -- --
2019-09-25 02:00:00 -- -- -- -- -- -- -- -- --
2019-09-25 01:00:00 -- -- -- -- -- -- -- -- --
2019-09-25 00:00:00 -- -- -- -- -- -- -- -- --
2019-09-24 23:00:00 -- -- -- -- -- -- -- -- --
2019-09-24 22:00:00 -- -- -- -- -- -- -- -- --
2019-09-24 21:00:00 -- -- -- -- -- -- -- -- --
2019-09-24 20:00:00 -- -- -- -- -- -- -- -- --
2019-09-24 19:00:00 -- -- -- -- -- -- -- -- --
2019-09-24 18:00:00 -- -- -- -- -- -- -- -- --
2019-09-24 17:00:00 -- -- -- -- -- -- -- -- --
2019-09-24 16:00:00 -- -- -- -- -- -- -- -- --
2019-09-24 15:00:00 -- -- -- -- -- -- -- -- --
2019-09-24 14:00:00 -- -- -- -- -- -- -- -- --
2019-09-24 13:00:00 -- -- -- -- -- -- -- -- --
2019-09-24 12:00:00 -- -- -- -- -- -- -- -- --
2019-09-24 11:00:00 -- -- -- -- -- -- -- -- --
2019-09-24 10:00:00 -- -- -- -- -- -- -- -- --
2019-09-24 09:00:00 -- -- -- -- -- -- -- -- --
2019-09-24 08:00:00 -- -- -- -- -- -- -- -- --
2019-09-24 07:00:00 -- -- -- -- -- -- -- -- --
2019-09-24 06:00:00 -- -- -- -- -- -- -- -- --
2019-09-24 05:00:00 -- -- -- -- -- -- -- -- --
2019-09-24 04:00:00 -- -- -- -- -- -- -- -- --
2019-09-24 03:00:00 -- -- -- -- -- -- -- -- --
2019-09-24 02:00:00 -- -- -- -- -- -- -- -- --
2019-09-24 01:00:00 -- -- -- -- -- -- -- -- --
2019-09-24 00:00:00 -- -- -- -- -- -- -- -- --
2019-09-23 23:00:00 -- -- -- -- -- -- -- -- --
2019-09-23 22:00:00 -- -- -- -- -- -- -- -- --
2019-09-23 21:00:00 -- -- -- -- -- -- -- -- --
2019-09-23 20:00:00 -- -- -- -- -- -- -- -- --
2019-09-23 19:00:00 -- -- -- -- -- -- -- -- --
2019-09-23 18:00:00 -- -- -- -- -- -- -- -- --
2019-09-23 17:00:00 -- -- -- -- -- -- -- -- --
2019-09-23 16:00:00 -- -- -- -- -- -- -- -- --
2019-09-23 15:00:00 -- -- -- -- -- -- -- -- --
2019-09-23 14:00:00 -- -- -- -- -- -- -- -- --
2019-09-23 13:00:00 -- -- -- -- -- -- -- -- --
2019-09-23 12:00:00 -- -- -- -- -- -- -- -- --
2019-09-23 11:00:00 -- -- -- -- -- -- -- -- --
2019-09-23 10:00:00 -- -- -- -- -- -- -- -- --
2019-09-23 09:00:00 -- -- -- -- -- -- -- -- --
2019-09-23 08:00:00 -- -- -- -- -- -- -- -- --
2019-09-23 07:00:00 -- -- -- -- -- -- -- -- --
2019-09-23 06:00:00 -- -- -- -- -- -- -- -- --
2019-09-23 05:00:00 -- -- -- -- -- -- -- -- --
2019-09-23 04:00:00 -- -- -- -- -- -- -- -- --
2019-09-23 03:00:00 -- -- -- -- -- -- -- -- --
2019-09-23 02:00:00 -- -- -- -- -- -- -- -- --
2019-09-23 01:00:00 -- -- -- -- -- -- -- -- --
2019-09-23 00:00:00 -- -- -- -- -- -- -- -- --
2019-09-22 23:00:00 -- -- -- -- -- -- -- -- --
2019-09-22 22:00:00 -- -- -- -- -- -- -- -- --
2019-09-22 21:00:00 -- -- -- -- -- -- -- -- --
2019-09-22 20:00:00 -- -- -- -- -- -- -- -- --
2019-09-22 19:00:00 -- -- -- -- -- -- -- -- --
2019-09-22 18:00:00 -- -- -- -- -- -- -- -- --
2019-09-22 17:00:00 -- -- -- -- -- -- -- -- --
2019-09-22 16:00:00 -- -- -- -- -- -- -- -- --
2019-09-22 15:00:00 -- -- -- -- -- -- -- -- --
2019-09-22 14:00:00 -- -- -- -- -- -- -- -- --
2019-09-22 13:00:00 -- -- -- -- -- -- -- -- --
2019-09-22 12:00:00 -- -- -- -- -- -- -- -- --
2019-09-22 11:00:00 -- -- -- -- -- -- -- -- --
2019-09-22 10:00:00 -- -- -- -- -- -- -- -- --
2019-09-22 09:00:00 -- -- -- -- -- -- -- -- --
2019-09-22 08:00:00 -- -- -- -- -- -- -- -- --
2019-09-22 07:00:00 -- -- -- -- -- -- -- -- --
2019-09-22 06:00:00 -- -- -- -- -- -- -- -- --
2019-09-22 05:00:00 -- -- -- -- -- -- -- -- --
2019-09-22 04:00:00 -- -- -- -- -- -- -- -- --
2019-09-22 03:00:00 -- -- -- -- -- -- -- -- --
2019-09-22 02:00:00 -- -- -- -- -- -- -- -- --
2019-09-22 01:00:00 -- -- -- -- -- -- -- -- --
2019-09-22 00:00:00 -- -- -- -- -- -- -- -- --
2019-09-21 23:00:00 -- -- -- -- -- -- -- -- --
2019-09-21 22:00:00 -- -- -- -- -- -- -- -- --
2019-09-21 21:00:00 -- -- -- -- -- -- -- -- --
2019-09-21 20:00:00 -- -- -- -- -- -- -- -- --
2019-09-21 19:00:00 -- -- -- -- -- -- -- -- --
2019-09-21 18:00:00 -- -- -- -- -- -- -- -- --
2019-09-21 17:00:00 -- -- -- -- -- -- -- -- --
2019-09-21 16:00:00 -- -- -- -- -- -- -- -- --
2019-09-21 15:00:00 -- -- -- -- -- -- -- -- --
2019-09-21 14:00:00 -- -- -- -- -- -- -- -- --
2019-09-21 13:00:00 -- -- -- -- -- -- -- -- --
2019-09-21 12:00:00 -- -- -- -- -- -- -- -- --
2019-09-21 11:00:00 -- -- -- -- -- -- -- -- --
2019-09-21 10:00:00 -- -- -- -- -- -- -- -- --
2019-09-21 09:00:00 -- -- -- -- -- -- -- -- --
2019-09-21 08:00:00 -- -- -- -- -- -- -- -- --
2019-09-21 07:00:00 -- -- -- -- -- -- -- -- --
2019-09-21 06:00:00 -- -- -- -- -- -- -- -- --
2019-09-21 05:00:00 -- -- -- -- -- -- -- -- --
2019-09-21 04:00:00 -- -- -- -- -- -- -- -- --
2019-09-21 03:00:00 -- -- -- -- -- -- -- -- --
2019-09-21 02:00:00 -- -- -- -- -- -- -- -- --
2019-09-21 01:00:00 -- -- -- -- -- -- -- -- --
2019-09-21 00:00:00 -- -- -- -- -- -- -- -- --
2019-09-20 23:00:00 -- -- -- -- -- -- -- -- --
2019-09-20 22:00:00 -- -- -- -- -- -- -- -- --
2019-09-20 21:00:00 -- -- -- -- -- -- -- -- --
2019-09-20 20:00:00 -- -- -- -- -- -- -- -- --
2019-09-20 19:00:00 -- -- -- -- -- -- -- -- --
2019-09-20 18:00:00 -- -- -- -- -- -- -- -- --
2019-09-20 17:00:00 -- -- -- -- -- -- -- -- --
2019-09-20 16:00:00 -- -- -- -- -- -- -- -- --
2019-09-20 15:00:00 -- -- -- -- -- -- -- -- --
2019-09-20 14:00:00 -- -- -- -- -- -- -- -- --
2019-09-20 13:00:00 -- -- -- -- -- -- -- -- --
2019-09-20 12:00:00 -- -- -- -- -- -- -- -- --
2019-09-20 11:00:00 -- -- -- -- -- -- -- -- --
2019-09-20 10:00:00 -- -- -- -- -- -- -- -- --
2019-09-20 09:00:00 -- -- -- -- -- -- -- -- --
2019-09-20 08:00:00 -- -- -- -- -- -- -- -- --
2019-09-20 07:00:00 -- -- -- -- -- -- -- -- --
2019-09-20 06:00:00 -- -- -- -- -- -- -- -- --
2019-09-20 05:00:00 -- -- -- -- -- -- -- -- --
2019-09-20 04:00:00 -- -- -- -- -- -- -- -- --
2019-09-20 03:00:00 -- -- -- -- -- -- -- -- --
2019-09-20 02:00:00 -- -- -- -- -- -- -- -- --
2019-09-20 01:00:00 -- -- -- -- -- -- -- -- --
2019-09-20 00:00:00 -- -- -- -- -- -- -- -- --
2019-09-19 23:00:00 -- -- -- -- -- -- -- -- --
2019-09-19 22:00:00 -- -- -- -- -- -- -- -- --
2019-09-19 21:00:00 -- -- -- -- -- -- -- -- --
2019-09-19 20:00:00 -- -- -- -- -- -- -- -- --
2019-09-19 19:00:00 -- -- -- -- -- -- -- -- --
2019-09-19 18:00:00 -- -- -- -- -- -- -- -- --
2019-09-19 17:00:00 -- -- -- -- -- -- -- -- --
2019-09-19 16:00:00 -- -- -- -- -- -- -- -- --
2019-09-19 15:00:00 -- -- -- -- -- -- -- -- --
2019-09-19 14:00:00 -- -- -- -- -- -- -- -- --
2019-09-19 13:00:00 -- -- -- -- -- -- -- -- --
2019-09-19 12:00:00 -- -- -- -- -- -- -- -- --
2019-09-19 11:00:00 -- -- -- -- -- -- -- -- --
2019-09-19 10:00:00 -- -- -- -- -- -- -- -- --
2019-09-19 09:00:00 -- -- -- -- -- -- -- -- --
2019-09-19 08:00:00 -- -- -- -- -- -- -- -- --
2019-09-19 07:00:00 -- -- -- -- -- -- -- -- --
2019-09-19 06:00:00 -- -- -- -- -- -- -- -- --
2019-09-19 05:00:00 -- -- -- -- -- -- -- -- --
2019-09-19 04:00:00 -- -- -- -- -- -- -- -- --
2019-09-19 03:00:00 -- -- -- -- -- -- -- -- --
2019-09-19 02:00:00 -- -- -- -- -- -- -- -- --
2019-09-19 01:00:00 -- -- -- -- -- -- -- -- --
2019-09-19 00:00:00 -- -- -- -- -- -- -- -- --
2019-09-18 23:00:00 -- -- -- -- -- -- -- -- --
2019-09-18 22:00:00 -- -- -- -- -- -- -- -- --
2019-09-18 21:00:00 -- -- -- -- -- -- -- -- --
2019-09-18 20:00:00 -- -- -- -- -- -- -- -- --
2019-09-18 19:00:00 -- -- -- -- -- -- -- -- --
2019-09-18 18:00:00 -- -- -- -- -- -- -- -- --
2019-09-18 17:00:00 -- -- -- -- -- -- -- -- --
2019-09-18 16:00:00 -- -- -- -- -- -- -- -- --
2019-09-18 15:00:00 -- -- -- -- -- -- -- -- --
2019-09-18 14:00:00 -- -- -- -- -- -- -- -- --
2019-09-18 13:00:00 -- -- -- -- -- -- -- -- --
2019-09-18 12:00:00 -- -- -- -- -- -- -- -- --
2019-09-18 11:00:00 -- -- -- -- -- -- -- -- --
2019-09-18 10:00:00 -- -- -- -- -- -- -- -- --
2019-09-18 09:00:00 -- -- -- -- -- -- -- -- --
2019-09-18 08:00:00 -- -- -- -- -- -- -- -- --
2019-09-18 07:00:00 -- -- -- -- -- -- -- -- --
2019-09-18 06:00:00 -- -- -- -- -- -- -- -- --
2019-09-18 05:00:00 -- -- -- -- -- -- -- -- --
2019-09-18 04:00:00 -- -- -- -- -- -- -- -- --
2019-09-18 03:00:00 -- -- -- -- -- -- -- -- --
2019-09-18 02:00:00 -- -- -- -- -- -- -- -- --
2019-09-18 01:00:00 -- -- -- -- -- -- -- -- --
2019-09-18 00:00:00 -- -- -- -- -- -- -- -- --
2019-09-17 23:00:00 -- -- -- -- -- -- -- -- --
2019-09-17 22:00:00 -- -- -- -- -- -- -- -- --
2019-09-17 21:00:00 19.4 12 Noroeste 22 Norte 0 -- -- 65